Hlavní strana
METAR-TAF:

METAR-TAF

Letiště :

Nuakšott, Mauritánie

zeměpisná šířka: 18-18-36N, zeměpisná délka: 015-58-11W, výška: 3 m

Aktuální stav počasí

Zpráva byla vytvořena před 1 hodinou a 0 minutami, v 10:00 UTC
Severoseverovýchodní vítr 16 kt
Teplota 30°C
Vlhkost vzduchu 24%
Tlak 1013 hPa
Viditelnost 10 km a více
Žádná oblačnost pod 1500 m, nevyskytují se cumulonimby.

METAR: GQNO 011000Z 02016KT CAVOK 30/07 Q1013 NOSIG

Čas: 11:00 (11:00 UTC)

Předpověď počasí

Zpráva byla vytvořena před 6 hodinami a 0 minutami, v 05:00 UTC
Předpověď platná od 01 v 06 UTC do 02 v 12 UTC
Severoseverovýchodní vítr 12 kt
Viditelnost: 8000 m
Změna
od 01 v 14 UTC do 01 v 16 UTC
Severoseverozápadní vítr 14 kt

TAF: GQNO 010500Z 0106/0212 03012KT 8000 NSC BECMG 0114/0116 33014KT

Stav a předpovědi počasí z více než 4 000 letišť (zprávy METAR a TAF).

Červené a žluté tečky na mapě představují dostupné meteorologické stanice.

Když kurzor umístíte na tečku, zobrazí se název stanice.

Pak kliknutím zobrazíte stav a předpověď počasí.

Chcete-li změnit mapu, kliknutím na zelené tlačítko se znaménkem +mapu přiblížíte, kliknutím na zelené tlačítko se znaménkem – mapu oddálíte a kliknutím na zelené šipky přejdete na sousední mapy.


METAR-TAF: